Madokamiya — JD3236 — position and weather

sailwx.info

Track history (hours):
 
Tides and Currents Weather Stations Pressure Air Temp Water Temp Dewpoint Dewpoint Depression Visibility Wind Speed Wind Dir Waves Ship Positions

Madokamiya

Last reported at 2017-Dec-18 13:00 UTC. Time now 2017-Dec-18 13:03 UTC.
Position N 34°57' E 136°41'.

Length 75 m.

Type: Cargo ship. MMSI: 431002903.

Date/timePositionNaut miles runAvg speedWind from/ knotsBaromVisibWave heightAir tempDewpointWater temp
2017-Dec-18 13:00N 34°57' E 136°41'2 4.9
2017-Dec-18 12:30N 34°55' E 136°42'510.5
2017-Dec-18 12:00N 34°50' E 136°44'5 9.5
2017-Dec-18 11:30N 34°46' E 136°48'6 9.8
2017-Dec-18 10:55N 34°42' E 136°52'101 9.4
2017-Dec-18 00:04N 34°36' E 138°55'4010.1
2017-Dec-17 20:08N 35°03' E 139°31'2 9.9
2017-Dec-17 19:55N 35°04' E 139°33'410.5
2017-Dec-17 19:30N 35°06' E 139°38'610.8
2017-Dec-17 18:59N 35°09' E 139°43'510.4
2017-Dec-17 18:30N 35°13' E 139°46'5 9.6
2017-Dec-17 18:00N 35°18' E 139°44'5 9.9
2017-Dec-17 17:30N 35°23' E 139°42'5 9.9
2017-Dec-17 17:00N 35°26' E 139°46'510.6
2017-Dec-17 16:30N 35°30' E 139°51'910.6
2017-Dec-17 15:38N 35°34' E 140°01'110.3
2017-Dec-17 15:30N 35°34' E 140°03'3 0.1
2017-Dec-16 02:12N 35°33' E 140°06'2 8.6
2017-Dec-16 02:00N 35°34' E 140°04'1 2.1
2017-Dec-16 01:28N 35°34' E 140°03'0 0.0
2017-Dec-16 00:58N 35°34' E 140°03'0 0.0
2017-Dec-16 00:28N 35°34' E 140°03'0 0.1
2017-Dec-15 23:58N 35°34' E 140°03'0 0.0
2017-Dec-15 23:28N 35°34' E 140°03'0 0.1
2017-Dec-15 22:58N 35°34' E 140°03'0 0.0
2017-Dec-15 22:28N 35°34' E 140°03'0 0.0
2017-Dec-15 21:58N 35°34' E 140°03'0 0.0
2017-Dec-15 21:28N 35°34' E 140°03'0 0.0
2017-Dec-15 20:58N 35°34' E 140°03'0 0.1
2017-Dec-15 20:28N 35°34' E 140°03'0 0.0
2017-Dec-15 19:58N 35°34' E 140°03'0 0.0
2017-Dec-15 19:28N 35°34' E 140°03'0 0.0
2017-Dec-15 18:58N 35°34' E 140°03'0 0.0
2017-Dec-15 18:28N 35°34' E 140°03'0 0.0
2017-Dec-15 17:58N 35°34' E 140°03'0 0.0
2017-Dec-15 17:28N 35°34' E 140°03'0 0.0
2017-Dec-15 16:58N 35°34' E 140°03'0 0.0
2017-Dec-15 16:28N 35°34' E 140°03'0 0.0
2017-Dec-15 15:58N 35°34' E 140°03'0 0.0
2017-Dec-15 15:28N 35°34' E 140°03'0 0.0
2017-Dec-15 14:58N 35°34' E 140°03'0 0.1
2017-Dec-15 14:28N 35°34' E 140°03'0 0.0
2017-Dec-15 13:58N 35°34' E 140°03'0 0.0
2017-Dec-15 13:28N 35°34' E 140°03'0 0.0
2017-Dec-15 12:58N 35°34' E 140°03'0 0.0
2017-Dec-15 12:28N 35°34' E 140°03'10 7.9
2017-Dec-15 11:10N 35°29' E 139°53'210.7
2017-Dec-15 11:00N 35°28' E 139°51'510.7
2017-Dec-15 10:30N 35°24' E 139°46'510.5
2017-Dec-15 10:00N 35°19' E 139°44'510.1
2017-Dec-15 09:30N 35°14' E 139°47'510.6
2017-Dec-15 09:00N 35°09' E 139°46'911.0
2017-Dec-15 08:09N 35°02' E 139°38'51 8.7
2017-Dec-15 02:20N 34°46' E 138°40'1511.6
2017-Dec-15 01:00N 35°01' E 138°33'2 3.9
2017-Dec-15 00:25N 34°60' E 138°30'1 0.2
2017-Dec-14 18:29N 35°01' E 138°31'0 0.3
2017-Dec-14 18:00N 35°01' E 138°31'2 3.2
2017-Dec-14 17:31N 35°02' E 138°32'3 6.8
2017-Dec-14 17:01N 34°59' E 138°34'610.8
2017-Dec-14 16:26N 34°53' E 138°37'511.1
2017-Dec-14 15:57N 34°48' E 138°39'18 9.1
2017-Dec-14 14:01N 34°36' E 138°55'3010.8
2017-Dec-14 11:13N 34°58' E 139°20'310.3
2017-Dec-14 10:55N 34°59' E 139°24'610.0
2017-Dec-14 10:16N 35°02' E 139°30'3 9.8
2017-Dec-14 10:00N 35°04' E 139°33'510.7
2017-Dec-14 09:31N 35°06' E 139°39'510.4
2017-Dec-14 09:00N 35°10' E 139°44'611.0
2017-Dec-14 08:29N 35°15' E 139°46'511.5
2017-Dec-14 08:01N 35°19' E 139°43'611.1
2017-Dec-14 07:31N 35°25' E 139°42'5 9.3
2017-Dec-14 07:00N 35°30' E 139°44'1 1.5
2017-Dec-14 06:24N 35°31' E 139°44'0 0.0
2017-Dec-14 05:51N 35°31' E 139°44'0 0.1
2017-Dec-14 05:30N 35°31' E 139°44'0 0.1
2017-Dec-14 04:12N 35°31' E 139°44'0 0.1
2017-Dec-14 03:57N 35°31' E 139°44'0 0.1
2017-Dec-14 03:30N 35°31' E 139°44'0 0.0
2017-Dec-14 02:48N 35°31' E 139°44'0 0.1
2017-Dec-14 02:27N 35°31' E 139°44'0 0.0
2017-Dec-14 01:51N 35°31' E 139°44'0 0.1
2017-Dec-14 01:27N 35°31' E 139°44'0 0.1
2017-Dec-14 00:45N 35°31' E 139°44'0 0.2
2017-Dec-14 00:30N 35°31' E 139°44'0 0.1
2017-Dec-13 23:57N 35°31' E 139°44'0 0.1
2017-Dec-13 23:23N 35°31' E 139°44'0 0.1
2017-Dec-13 23:00N 35°31' E 139°44'0 0.1
2017-Dec-13 22:18N 35°31' E 139°44'0 0.2
2017-Dec-13 21:57N 35°31' E 139°44'0 0.1
2017-Dec-13 21:06N 35°31' E 139°44'0 0.4
2017-Dec-13 20:57N 35°31' E 139°44'0 0.0
2017-Dec-13 20:26N 35°31' E 139°44'0 0.0
2017-Dec-13 20:00N 35°31' E 139°44'0 0.0
2017-Dec-13 19:00N 35°31' E 139°44'0 0.0
2017-Dec-13 18:21N 35°31' E 139°44'0 0.1
2017-Dec-13 17:56N 35°31' E 139°44'0 0.1
2017-Dec-13 17:23N 35°31' E 139°44'0 0.0
2017-Dec-13 16:59N 35°31' E 139°44'0 0.2
2017-Dec-13 16:29N 35°31' E 139°44'0 0.2
2017-Dec-13 15:59N 35°31' E 139°44'2 3.8
2017-Dec-13 15:30N 35°29' E 139°43'2 4.4
2017-Dec-13 15:00N 35°27' E 139°42'0 0.0
2017-Dec-13 14:27N 35°27' E 139°42'0 0.0
2017-Dec-13 14:00N 35°27' E 139°42'0 0.0
2017-Dec-13 13:30N 35°27' E 139°42'0 0.0
2017-Dec-13 12:57N 35°27' E 139°42'0 0.0
2017-Dec-13 12:27N 35°27' E 139°42'0 0.0
2017-Dec-13 12:00N 35°27' E 139°42'0 0.0
2017-Dec-13 11:24N 35°27' E 139°42'0 0.0
2017-Dec-13 11:00N 35°27' E 139°42'0 0.0
2017-Dec-13 10:30N 35°27' E 139°42'0 0.0
2017-Dec-13 10:00N 35°27' E 139°42'0 0.0
2017-Dec-13 09:24N 35°27' E 139°42'0 0.0
2017-Dec-13 09:00N 35°27' E 139°42'0 0.0
2017-Dec-13 08:30N 35°27' E 139°42'0 0.1
2017-Dec-13 08:00N 35°27' E 139°42'0 0.0
2017-Dec-13 07:27N 35°27' E 139°42'0 0.0
2017-Dec-13 07:00N 35°27' E 139°42'0 0.0
2017-Dec-13 06:30N 35°27' E 139°42'0 0.0
2017-Dec-13 06:00N 35°27' E 139°42'0 0.0
2017-Dec-13 05:30N 35°27' E 139°42'0 0.0
2017-Dec-13 05:00N 35°27' E 139°42'0 0.0
2017-Dec-13 04:30N 35°27' E 139°42'0 0.0
2017-Dec-13 04:00N 35°27' E 139°42'0 0.0
2017-Dec-13 03:30N 35°27' E 139°42'0 0.0
2017-Dec-13 02:48N 35°27' E 139°42'1 3.6
2017-Dec-13 02:30N 35°26' E 139°43'611.0
2017-Dec-13 01:59N 35°20' E 139°43'611.5
2017-Dec-13 01:29N 35°15' E 139°47'611.2
2017-Dec-13 00:56N 35°09' E 139°47'  
2017-Dec-08 14:35N 34°18' E 134°35'0 5.5
2017-Dec-08 14:30N 34°18' E 134°35'  
Track history (hours):
 
Tides and Currents Weather Stations Pressure Air Temp Water Temp Dewpoint Dewpoint Depression Visibility Wind Speed Wind Dir Waves Ship Positions

Madokamiya

Last reported at 2017-Dec-18 13:00 UTC. Time now 2017-Dec-18 13:03 UTC.
Position N 34°57' E 136°41'.

Length 75 m.

Type: Cargo ship. MMSI: 431002903.

Date/timePositionNaut miles runAvg speedWind from/ knotsBaromVisibWave heightAir tempDewpointWater temp
2017-Dec-18 13:00N 34°57' E 136°41'2 4.9
2017-Dec-18 12:30N 34°55' E 136°42'510.5
2017-Dec-18 12:00N 34°50' E 136°44'5 9.5
2017-Dec-18 11:30N 34°46' E 136°48'6 9.8
2017-Dec-18 10:55N 34°42' E 136°52'101 9.4
2017-Dec-18 00:04N 34°36' E 138°55'4010.1
2017-Dec-17 20:08N 35°03' E 139°31'2 9.9
2017-Dec-17 19:55N 35°04' E 139°33'410.5
2017-Dec-17 19:30N 35°06' E 139°38'610.8
2017-Dec-17 18:59N 35°09' E 139°43'510.4
2017-Dec-17 18:30N 35°13' E 139°46'5 9.6
2017-Dec-17 18:00N 35°18' E 139°44'5 9.9
2017-Dec-17 17:30N 35°23' E 139°42'5 9.9
2017-Dec-17 17:00N 35°26' E 139°46'510.6
2017-Dec-17 16:30N 35°30' E 139°51'910.6
2017-Dec-17 15:38N 35°34' E 140°01'110.3
2017-Dec-17 15:30N 35°34' E 140°03'3 0.1
2017-Dec-16 02:12N 35°33' E 140°06'2 8.6
2017-Dec-16 02:00N 35°34' E 140°04'1 2.1
2017-Dec-16 01:28N 35°34' E 140°03'0 0.0
2017-Dec-16 00:58N 35°34' E 140°03'0 0.0
2017-Dec-16 00:28N 35°34' E 140°03'0 0.1
2017-Dec-15 23:58N 35°34' E 140°03'0 0.0
2017-Dec-15 23:28N 35°34' E 140°03'0 0.1
2017-Dec-15 22:58N 35°34' E 140°03'0 0.0
2017-Dec-15 22:28N 35°34' E 140°03'0 0.0
2017-Dec-15 21:58N 35°34' E 140°03'0 0.0
2017-Dec-15 21:28N 35°34' E 140°03'0 0.0
2017-Dec-15 20:58N 35°34' E 140°03'0 0.1
2017-Dec-15 20:28N 35°34' E 140°03'0 0.0
2017-Dec-15 19:58N 35°34' E 140°03'0 0.0
2017-Dec-15 19:28N 35°34' E 140°03'0 0.0
2017-Dec-15 18:58N 35°34' E 140°03'0 0.0
2017-Dec-15 18:28N 35°34' E 140°03'0 0.0
2017-Dec-15 17:58N 35°34' E 140°03'0 0.0
2017-Dec-15 17:28N 35°34' E 140°03'0 0.0
2017-Dec-15 16:58N 35°34' E 140°03'0 0.0
2017-Dec-15 16:28N 35°34' E 140°03'0 0.0
2017-Dec-15 15:58N 35°34' E 140°03'0 0.0
2017-Dec-15 15:28N 35°34' E 140°03'0 0.0
2017-Dec-15 14:58N 35°34' E 140°03'0 0.1
2017-Dec-15 14:28N 35°34' E 140°03'0 0.0
2017-Dec-15 13:58N 35°34' E 140°03'0 0.0
2017-Dec-15 13:28N 35°34' E 140°03'0 0.0
2017-Dec-15 12:58N 35°34' E 140°03'0 0.0
2017-Dec-15 12:28N 35°34' E 140°03'10 7.9
2017-Dec-15 11:10N 35°29' E 139°53'210.7
2017-Dec-15 11:00N 35°28' E 139°51'510.7
2017-Dec-15 10:30N 35°24' E 139°46'510.5
2017-Dec-15 10:00N 35°19' E 139°44'510.1
2017-Dec-15 09:30N 35°14' E 139°47'510.6
2017-Dec-15 09:00N 35°09' E 139°46'911.0
2017-Dec-15 08:09N 35°02' E 139°38'51 8.7
2017-Dec-15 02:20N 34°46' E 138°40'1511.6
2017-Dec-15 01:00N 35°01' E 138°33'2 3.9
2017-Dec-15 00:25N 34°60' E 138°30'1 0.2
2017-Dec-14 18:29N 35°01' E 138°31'0 0.3
2017-Dec-14 18:00N 35°01' E 138°31'2 3.2
2017-Dec-14 17:31N 35°02' E 138°32'3 6.8
2017-Dec-14 17:01N 34°59' E 138°34'610.8
2017-Dec-14 16:26N 34°53' E 138°37'511.1
2017-Dec-14 15:57N 34°48' E 138°39'18 9.1
2017-Dec-14 14:01N 34°36' E 138°55'3010.8
2017-Dec-14 11:13N 34°58' E 139°20'310.3
2017-Dec-14 10:55N 34°59' E 139°24'610.0
2017-Dec-14 10:16N 35°02' E 139°30'3 9.8
2017-Dec-14 10:00N 35°04' E 139°33'510.7
2017-Dec-14 09:31N 35°06' E 139°39'510.4
2017-Dec-14 09:00N 35°10' E 139°44'611.0
2017-Dec-14 08:29N 35°15' E 139°46'511.5
2017-Dec-14 08:01N 35°19' E 139°43'611.1
2017-Dec-14 07:31N 35°25' E 139°42'5 9.3
2017-Dec-14 07:00N 35°30' E 139°44'1 1.5
2017-Dec-14 06:24N 35°31' E 139°44'0 0.0
2017-Dec-14 05:51N 35°31' E 139°44'0 0.1
2017-Dec-14 05:30N 35°31' E 139°44'0 0.1
2017-Dec-14 04:12N 35°31' E 139°44'0 0.1
2017-Dec-14 03:57N 35°31' E 139°44'0 0.1
2017-Dec-14 03:30N 35°31' E 139°44'0 0.0
2017-Dec-14 02:48N 35°31' E 139°44'0 0.1
2017-Dec-14 02:27N 35°31' E 139°44'0 0.0
2017-Dec-14 01:51N 35°31' E 139°44'0 0.1
2017-Dec-14 01:27N 35°31' E 139°44'0 0.1
2017-Dec-14 00:45N 35°31' E 139°44'0 0.2
2017-Dec-14 00:30N 35°31' E 139°44'0 0.1
2017-Dec-13 23:57N 35°31' E 139°44'0 0.1
2017-Dec-13 23:23N 35°31' E 139°44'0 0.1
2017-Dec-13 23:00N 35°31' E 139°44'0 0.1
2017-Dec-13 22:18N 35°31' E 139°44'0 0.2
2017-Dec-13 21:57N 35°31' E 139°44'0 0.1
2017-Dec-13 21:06N 35°31' E 139°44'0 0.4
2017-Dec-13 20:57N 35°31' E 139°44'0 0.0
2017-Dec-13 20:26N 35°31' E 139°44'0 0.0
2017-Dec-13 20:00N 35°31' E 139°44'0 0.0
2017-Dec-13 19:00N 35°31' E 139°44'0 0.0
2017-Dec-13 18:21N 35°31' E 139°44'0 0.1
2017-Dec-13 17:56N 35°31' E 139°44'0 0.1
2017-Dec-13 17:23N 35°31' E 139°44'0 0.0
2017-Dec-13 16:59N 35°31' E 139°44'0 0.2
2017-Dec-13 16:29N 35°31' E 139°44'0 0.2
2017-Dec-13 15:59N 35°31' E 139°44'2 3.8
2017-Dec-13 15:30N 35°29' E 139°43'2 4.4
2017-Dec-13 15:00N 35°27' E 139°42'0 0.0
2017-Dec-13 14:27N 35°27' E 139°42'0 0.0
2017-Dec-13 14:00N 35°27' E 139°42'0 0.0
2017-Dec-13 13:30N 35°27' E 139°42'0 0.0
2017-Dec-13 12:57N 35°27' E 139°42'0 0.0
2017-Dec-13 12:27N 35°27' E 139°42'0 0.0
2017-Dec-13 12:00N 35°27' E 139°42'0 0.0
2017-Dec-13 11:24N 35°27' E 139°42'0 0.0
2017-Dec-13 11:00N 35°27' E 139°42'0 0.0
2017-Dec-13 10:30N 35°27' E 139°42'0 0.0
2017-Dec-13 10:00N 35°27' E 139°42'0 0.0
2017-Dec-13 09:24N 35°27' E 139°42'0 0.0
2017-Dec-13 09:00N 35°27' E 139°42'0 0.0
2017-Dec-13 08:30N 35°27' E 139°42'0 0.1
2017-Dec-13 08:00N 35°27' E 139°42'0 0.0
2017-Dec-13 07:27N 35°27' E 139°42'0 0.0
2017-Dec-13 07:00N 35°27' E 139°42'0 0.0
2017-Dec-13 06:30N 35°27' E 139°42'0 0.0
2017-Dec-13 06:00N 35°27' E 139°42'0 0.0
2017-Dec-13 05:30N 35°27' E 139°42'0 0.0
2017-Dec-13 05:00N 35°27' E 139°42'0 0.0
2017-Dec-13 04:30N 35°27' E 139°42'0 0.0
2017-Dec-13 04:00N 35°27' E 139°42'0 0.0
2017-Dec-13 03:30N 35°27' E 139°42'0 0.0
2017-Dec-13 02:48N 35°27' E 139°42'1 3.6
2017-Dec-13 02:30N 35°26' E 139°43'611.0
2017-Dec-13 01:59N 35°20' E 139°43'611.5
2017-Dec-13 01:29N 35°15' E 139°47'611.2
2017-Dec-13 00:56N 35°09' E 139°47'  
2017-Dec-08 14:35N 34°18' E 134°35'0 5.5
2017-Dec-08 14:30N 34°18' E 134°35'  

Dump ship's entire track history